Time;durP1;ratioP1;P1;durP2;ratioP2;P2;SDS_P1;SDS_P2;PMS_P1;PMS_P2;Temp;Humidity;BMP_temperature;BMP_pressure;BME280_temperature;BME280_humidity;BME280_pressure;Samples;Min_cycle;Max_cycle;Signal;HPM_P1;HPM_P2
2021/12/09 00:00:12;;;;;;;0.10;0.10;;;;;;;8.50;100.00;97711.34;4994871;28;20053;-83
2021/12/09 00:03:15;;;;;;;0.30;0.30;;;;;;;8.58;100.00;97722.66;5000242;28;20049;-83
2021/12/09 00:06:22;;;;;;;0.20;0.20;;;;;;;8.57;100.00;97721.91;5007608;28;20534;-83
2021/12/09 00:09:24;;;;;;;2.00;0.20;;;;;;;8.63;100.00;97736.50;5008736;28;20045;-83
2021/12/09 00:12:28;;;;;;;6.38;0.45;;;;;;;8.61;100.00;97727.94;4995101;28;20048;-83
2021/12/09 00:15:31;;;;;;;0.55;0.40;;;;;;;8.64;100.00;97724.13;5010875;28;20136;-84
2021/12/09 00:18:33;;;;;;;0.20;0.20;;;;;;;8.66;100.00;97741.03;5028670;28;20810;-85
2021/12/09 00:33:02;;;;;;;0.32;0.20;;;;;;;8.64;100.00;97748.34;6228080;22;1345105;-58
2021/12/09 00:36:06;;;;;;;0.30;0.30;;;;;;;8.58;100.00;97748.38;6284091;22;20025;-56
2021/12/09 00:39:11;;;;;;;0.20;0.20;;;;;;;8.63;100.00;97755.91;6284153;22;20447;-56
2021/12/09 00:42:14;;;;;;;0.35;0.35;;;;;;;8.55;100.00;97754.19;6284170;22;20076;-56
2021/12/09 00:45:16;;;;;;;0.30;0.20;;;;;;;8.59;100.00;97763.75;6284522;22;20026;-56
2021/12/09 00:48:19;;;;;;;0.60;0.60;;;;;;;8.54;100.00;97764.53;6284085;22;20025;-57
2021/12/09 00:51:22;;;;;;;1.55;0.52;;;;;;;8.46;100.00;97769.13;6283581;22;20027;-58
2021/12/09 00:54:26;;;;;;;0.40;0.38;;;;;;;8.43;100.00;97783.25;6282994;22;20053;-57
2021/12/09 00:57:29;;;;;;;0.40;0.40;;;;;;;8.40;100.00;97779.50;6283926;22;20030;-57
2021/12/09 01:00:32;;;;;;;0.20;0.20;;;;;;;8.36;100.00;97768.66;6282992;22;20077;-57
2021/12/09 01:03:36;;;;;;;0.90;0.68;;;;;;;8.41;100.00;97775.44;6283625;22;20023;-56
2021/12/09 01:06:39;;;;;;;5.47;0.43;;;;;;;8.40;100.00;97791.31;6283097;22;20110;-57
2021/12/09 01:09:42;;;;;;;0.10;0.10;;;;;;;8.42;100.00;97776.97;6283698;22;20509;-56
2021/12/09 01:12:46;;;;;;;0.10;0.10;;;;;;;8.43;100.00;97777.69;6283069;22;20026;-56
2021/12/09 01:15:50;;;;;;;2.50;1.63;;;;;;;8.46;100.00;97777.44;6282637;22;20103;-56
2021/12/09 01:18:53;;;;;;;14.15;0.40;;;;;;;8.42;100.00;97796.38;6283003;22;20026;-56
2021/12/09 01:21:56;;;;;;;0.20;0.15;;;;;;;8.44;100.00;97802.16;6288948;22;20315;-52
2021/12/09 01:24:59;;;;;;;0.20;0.20;;;;;;;8.51;100.00;97812.72;6313805;22;20088;-52
2021/12/09 01:28:07;;;;;;;1.15;0.30;;;;;;;8.49;100.00;97809.69;6314341;22;20053;-53
2021/12/09 01:31:11;;;;;;;0.28;0.28;;;;;;;8.63;100.00;97816.97;6314506;22;20029;-53
2021/12/09 01:34:16;;;;;;;0.25;0.25;;;;;;;8.65;100.00;97817.19;6307027;22;20057;-52
2021/12/09 01:37:18;;;;;;;0.30;0.30;;;;;;;8.64;100.00;97823.28;6307458;22;20581;-52
2021/12/09 01:40:26;;;;;;;0.10;0.10;;;;;;;8.65;100.00;97830.31;6306954;22;20038;-52
2021/12/09 01:43:29;;;;;;;0.17;0.17;;;;;;;8.69;100.00;97839.13;6307298;22;20109;-52
2021/12/09 01:46:32;;;;;;;0.30;0.20;;;;;;;8.65;100.00;97844.94;6306328;22;20072;-52
2021/12/09 01:49:34;;;;;;;0.77;0.77;;;;;;;8.62;100.00;97851.50;6307039;22;20026;-52
2021/12/09 01:52:39;;;;;;;0.38;0.38;;;;;;;8.58;100.00;97851.03;6306027;22;20022;-52
2021/12/09 01:55:42;;;;;;;3.15;0.68;;;;;;;8.63;100.00;97863.38;6306521;22;20022;-51
2021/12/09 01:58:45;;;;;;;0.20;0.20;;;;;;;8.61;100.00;97860.34;6305673;22;20068;-51
2021/12/09 02:01:48;;;;;;;4.55;1.55;;;;;;;8.70;100.00;97869.16;6287389;22;20095;-52
2021/12/09 02:04:50;;;;;;;16.45;1.00;;;;;;;8.61;100.00;97866.66;6305936;22;20033;-51
2021/12/09 02:07:54;;;;;;;16.38;0.95;;;;;;;8.67;100.00;97867.38;6306630;22;20431;-51
2021/12/09 02:10:58;;;;;;;0.38;0.35;;;;;;;8.72;100.00;97876.94;6306374;22;20072;-51
2021/12/09 02:14:02;;;;;;;0.38;0.20;;;;;;;8.78;100.00;97884.00;6307037;22;20022;-51
2021/12/09 02:17:05;;;;;;;0.75;0.35;;;;;;;8.77;100.00;97888.03;6306494;22;20835;-52
2021/12/09 02:20:08;;;;;;;0.10;0.10;;;;;;;8.77;100.00;97901.16;6306720;22;20037;-52
2021/12/09 02:23:16;;;;;;;0.40;0.40;;;;;;;8.83;100.00;97899.13;6305895;22;20030;-51
2021/12/09 02:26:28;;;;;;;0.70;0.60;;;;;;;8.86;100.00;97898.84;6306783;22;20025;-53
2021/12/09 02:29:31;;;;;;;0.65;0.65;;;;;;;8.73;100.00;97908.97;6305577;22;20025;-52
2021/12/09 02:32:34;;;;;;;1.17;0.75;;;;;;;8.83;100.00;97902.66;6306378;22;20021;-51
2021/12/09 02:35:38;;;;;;;0.10;0.10;;;;;;;8.80;100.00;97917.53;6306161;22;20026;-51
2021/12/09 02:38:44;;;;;;;0.15;0.15;;;;;;;8.77;100.00;97910.22;6306302;22;20021;-52
2021/12/09 02:41:49;;;;;;;0.25;0.17;;;;;;;8.75;100.00;97920.34;6306386;22;20473;-52
2021/12/09 02:44:55;;;;;;;0.75;0.38;;;;;;;8.75;100.00;97926.63;6305576;22;20026;-52
2021/12/09 02:47:57;;;;;;;0.28;0.20;;;;;;;8.67;100.00;97936.00;6306651;22;20037;-51
2021/12/09 02:51:02;;;;;;;7.32;0.50;;;;;;;8.68;100.00;97931.97;6306661;22;20065;-52
2021/12/09 02:54:08;;;;;;;0.13;0.10;;;;;;;8.60;100.00;97931.72;6305362;22;20025;-52
2021/12/09 02:57:11;;;;;;;0.13;0.10;;;;;;;8.56;100.00;97952.66;6306903;22;20056;-51
2021/12/09 03:00:14;;;;;;;3.03;0.38;;;;;;;8.57;100.00;97952.19;6306446;22;20117;-51
2021/12/09 03:03:17;;;;;;;0.30;0.10;;;;;;;8.53;100.00;97957.22;6305738;22;20026;-51
2021/12/09 03:06:37;;;;;;;3.13;0.30;;;;;;;8.47;100.00;97962.00;6306627;22;20026;-51
2021/12/09 03:09:49;;;;;;;0.40;0.40;;;;;;;8.45;100.00;97961.75;6306333;22;20066;-51
2021/12/09 03:12:53;;;;;;;;;;;;;;;8.45;100.00;97966.56;6306614;22;20402;-51
2021/12/09 03:15:57;;;;;;;24.23;1.27;;;;;;;8.41;100.00;97964.03;6305878;22;19930;-51
2021/12/09 03:19:03;;;;;;;0.50;0.50;;;;;;;8.31;100.00;97955.25;6306344;22;20022;-51
2021/12/09 03:22:07;;;;;;;0.20;0.20;;;;;;;8.23;100.00;97972.84;6305907;22;20524;-51
2021/12/09 03:25:12;;;;;;;0.10;0.10;;;;;;;8.26;100.00;97980.19;6306363;22;20025;-51
2021/12/09 03:28:15;;;;;;;2.85;0.35;;;;;;;8.08;100.00;97994.53;6306233;22;20038;-51
2021/12/09 03:31:18;;;;;;;9.10;0.40;;;;;;;8.17;100.00;97997.06;6306182;22;20022;-51
2021/12/09 03:34:25;;;;;;;0.10;0.10;;;;;;;8.25;100.00;97989.75;6305661;22;20062;-51
2021/12/09 03:37:28;;;;;;;0.28;0.28;;;;;;;8.28;100.00;97991.53;6306233;22;20026;-51
2021/12/09 03:40:31;;;;;;;0.13;0.13;;;;;;;8.34;100.00;98001.38;6305659;22;20022;-51
2021/12/09 03:43:35;;;;;;;0.10;0.10;;;;;;;8.37;100.00;98003.16;6305751;22;20076;-51
2021/12/09 03:46:39;;;;;;;0.10;0.10;;;;;;;8.39;100.00;98010.94;6305364;22;20068;-51
2021/12/09 03:49:42;;;;;;;3.13;0.45;;;;;;;8.38;100.00;98020.53;6305255;22;20402;-51
2021/12/09 03:52:45;;;;;;;0.30;0.30;;;;;;;8.37;100.00;98028.09;6305248;22;20018;-51
2021/12/09 03:55:49;;;;;;;0.10;0.10;;;;;;;8.34;100.00;98031.88;6286450;22;20088;-51
2021/12/09 03:58:52;;;;;;;8.10;0.30;;;;;;;8.26;100.00;98035.66;6304736;22;20158;-52
2021/12/09 04:01:55;;;;;;;0.57;0.30;;;;;;;8.33;100.00;98040.72;6305474;22;20089;-53
2021/12/09 04:04:57;;;;;;;21.83;0.52;;;;;;;8.27;100.00;98048.28;6305499;22;20072;-52
2021/12/09 04:08:00;;;;;;;0.10;0.10;;;;;;;8.25;100.00;98050.78;6305404;22;20455;-52
2021/12/09 04:11:04;;;;;;;6.00;0.82;;;;;;;8.23;100.00;98047.72;6305689;22;20462;-52
2021/12/09 04:14:07;;;;;;;5.75;0.60;;;;;;;8.35;100.00;98063.16;6305937;22;20041;-52
2021/12/09 04:17:10;;;;;;;0.20;0.20;;;;;;;8.34;100.00;98059.59;6305554;22;20701;-52
2021/12/09 04:20:13;;;;;;;0.57;0.57;;;;;;;8.32;100.00;98064.13;6305633;22;20098;-52
2021/12/09 04:23:16;;;;;;;11.15;0.43;;;;;;;8.31;100.00;98062.66;6305283;22;20069;-52
2021/12/09 04:26:19;;;;;;;4.68;0.50;;;;;;;8.37;100.00;98075.25;6305825;22;20351;-52
2021/12/09 04:29:22;;;;;;;0.30;0.20;;;;;;;8.39;100.00;98088.59;6305632;22;20102;-53
2021/12/09 04:32:25;;;;;;;0.60;0.60;;;;;;;8.40;100.00;98106.78;6305192;22;20084;-53
2021/12/09 04:35:28;;;;;;;0.30;0.30;;;;;;;8.38;100.00;98103.75;6305571;22;20026;-53
2021/12/09 04:38:31;;;;;;;0.40;0.40;;;;;;;8.36;100.00;98089.59;6304810;22;20084;-52
2021/12/09 04:41:34;;;;;;;0.10;0.10;;;;;;;8.29;100.00;98095.66;6304628;22;20073;-52
2021/12/09 04:44:37;;;;;;;0.10;0.10;;;;;;;8.23;100.00;98094.84;6304807;22;20049;-51
2021/12/09 04:47:40;;;;;;;0.20;0.20;;;;;;;8.18;100.00;98109.50;6304887;22;20026;-52
2021/12/09 04:50:43;;;;;;;0.10;0.10;;;;;;;8.16;100.00;98103.69;6305056;22;20026;-52
2021/12/09 04:53:47;;;;;;;0.20;0.20;;;;;;;8.11;100.00;98101.66;6304555;22;20125;-52
2021/12/09 04:56:49;;;;;;;2.17;0.90;;;;;;;8.06;100.00;98105.94;6305309;22;20073;-52
2021/12/09 04:59:52;;;;;;;17.15;0.70;;;;;;;8.09;100.00;98104.19;6304934;22;20049;-52
2021/12/09 05:03:04;;;;;;;4.45;1.05;;;;;;;8.03;100.00;98111.72;6305248;22;20122;-52
2021/12/09 05:06:07;;;;;;;;;;;;;;;8.05;100.00;98120.28;6305800;22;20026;-51
2021/12/09 05:09:16;;;;;;;5.05;1.17;;;;;;;8.19;100.00;98114.53;6307322;22;19914;-51
2021/12/09 05:12:21;;;;;;;0.38;0.38;;;;;;;8.24;100.00;98111.00;6307208;22;20022;-52
2021/12/09 05:15:24;;;;;;;0.25;0.15;;;;;;;8.25;100.00;98111.78;6307571;22;20022;-52
2021/12/09 05:18:29;;;;;;;2.63;0.95;;;;;;;8.26;100.00;98113.31;6306992;22;20494;-52
2021/12/09 05:21:37;;;;;;;2.38;0.98;;;;;;;8.29;100.00;98107.50;6306636;22;20390;-51
2021/12/09 05:24:40;;;;;;;8.57;0.98;;;;;;;8.36;100.00;98111.78;6306907;22;20034;-51
2021/12/09 05:27:43;;;;;;;0.10;0.05;;;;;;;8.40;100.00;98112.31;6306969;22;20026;-51
2021/12/09 05:34:11;;;;;;;0.43;0.43;;;;;;;8.31;100.00;98105.00;6307067;22;20077;-51
2021/12/09 05:37:19;;;;;;;0.20;0.20;;;;;;;8.32;100.00;98100.19;6306964;22;20026;-51
2021/12/09 05:40:22;;;;;;;0.17;0.17;;;;;;;8.25;100.00;98106.22;6306923;22;20022;-51
2021/12/09 05:43:26;;;;;;;0.35;0.30;;;;;;;8.26;100.00;98104.97;6306607;22;20406;-51
2021/12/09 05:46:30;;;;;;;0.20;0.20;;;;;;;8.19;100.00;98105.44;6306404;22;20056;-52
2021/12/09 05:49:37;;;;;;;1.65;0.73;;;;;;;8.18;100.00;98109.50;6306783;22;20098;-51
2021/12/09 05:52:41;;;;;;;0.10;0.10;;;;;;;8.16;100.00;98121.09;6306229;22;20041;-51
2021/12/09 05:55:44;;;;;;;0.35;0.35;;;;;;;8.28;100.00;98122.63;6306732;22;20500;-51
2021/12/09 05:58:47;;;;;;;12.18;0.77;;;;;;;8.30;100.00;98124.91;6306669;22;20076;-51
2021/12/09 06:01:49;;;;;;;0.10;0.10;;;;;;;8.25;100.00;98128.41;6306699;22;20026;-51
2021/12/09 06:04:52;;;;;;;8.68;1.17;;;;;;;8.21;100.00;98133.44;6306833;22;20022;-51
2021/12/09 06:07:55;;;;;;;9.57;0.85;;;;;;;8.14;100.00;98139.47;6306582;22;20462;-51
2021/12/09 06:11:00;;;;;;;0.30;0.30;;;;;;;8.16;100.00;98142.50;6287818;22;20346;-51
2021/12/09 06:14:04;;;;;;;0.20;0.20;;;;;;;8.19;100.00;98144.25;6306542;22;20099;-51
2021/12/09 06:17:07;;;;;;;11.95;0.68;;;;;;;8.12;100.00;98147.53;6305921;22;20025;-51
2021/12/09 06:20:11;;;;;;;9.65;0.63;;;;;;;8.15;100.00;98140.97;6306879;22;20366;-51
2021/12/09 06:23:14;;;;;;;0.20;0.20;;;;;;;8.17;100.00;98132.91;6306372;22;20080;-50
2021/12/09 06:26:17;;;;;;;0.10;0.10;;;;;;;8.14;100.00;98142.25;6306899;22;20087;-51
2021/12/09 06:29:20;;;;;;;3.78;1.40;;;;;;;8.13;100.00;98149.81;6306049;22;20026;-50
2021/12/09 06:32:26;;;;;;;0.38;0.30;;;;;;;8.11;100.00;98166.19;6306397;22;20073;-51
2021/12/09 06:35:29;;;;;;;1.20;0.75;;;;;;;8.07;100.00;98179.53;6306314;22;20022;-50
2021/12/09 06:38:32;;;;;;;1.08;0.65;;;;;;;8.01;100.00;98164.13;6306151;22;20100;-51
2021/12/09 06:41:35;;;;;;;2.60;0.95;;;;;;;8.00;100.00;98168.16;6305742;22;20371;-51
2021/12/09 06:44:38;;;;;;;0.73;0.22;;;;;;;7.89;100.00;98174.41;6306142;22;20026;-51
2021/12/09 06:47:41;;;;;;;13.60;1.02;;;;;;;7.91;100.00;98190.53;6305322;22;20029;-51
2021/12/09 06:50:45;;;;;;;0.20;0.20;;;;;;;7.90;100.00;98197.34;6305919;22;20403;-51
2021/12/09 06:53:48;;;;;;;1.65;0.80;;;;;;;7.89;100.00;98195.81;6305964;22;20026;-51
2021/12/09 06:56:50;;;;;;;2.15;1.00;;;;;;;7.85;100.00;98203.63;6305755;22;21213;-51
2021/12/09 06:59:53;;;;;;;0.70;0.20;;;;;;;7.78;100.00;98210.38;6305725;22;20402;-51
2021/12/09 07:02:56;;;;;;;1.23;0.20;;;;;;;7.88;100.00;98216.50;6286830;22;20320;-50
2021/12/09 07:06:05;;;;;;;0.25;0.10;;;;;;;7.85;100.00;98209.16;6306059;22;20072;-50
2021/12/09 07:09:08;;;;;;;14.25;0.85;;;;;;;7.87;100.00;98215.72;6306494;22;20026;-50
2021/12/09 07:12:11;;;;;;;2.83;1.05;;;;;;;7.90;100.00;98216.75;6306262;22;20362;-50
2021/12/09 07:15:16;;;;;;;2.17;0.90;;;;;;;7.86;100.00;98219.00;6306695;22;20021;-50
2021/12/09 07:18:22;;;;;;;0.73;0.55;;;;;;;7.89;100.00;98218.00;6305109;22;20048;-51
2021/12/09 07:21:25;;;;;;;4.03;1.92;;;;;;;7.86;100.00;98224.56;6305641;22;20030;-51
2021/12/09 07:24:28;;;;;;;0.10;0.00;;;;;;;7.79;100.00;98225.78;6306232;22;20041;-50
2021/12/09 07:27:31;;;;;;;0.57;0.30;;;;;;;7.76;100.00;98228.75;6305669;22;20022;-50
2021/12/09 07:30:34;;;;;;;1.05;0.95;;;;;;;7.74;100.00;98229.28;6305439;22;20076;-51
2021/12/09 07:33:37;;;;;;;0.45;0.40;;;;;;;7.87;100.00;98234.38;6305229;22;20097;-51
2021/12/09 07:36:40;;;;;;;0.28;0.28;;;;;;;7.82;100.00;98232.34;6305636;22;20025;-50
2021/12/09 07:39:43;;;;;;;0.25;0.25;;;;;;;7.81;100.00;98239.13;6305512;22;20439;-50
2021/12/09 07:42:46;;;;;;;0.55;0.35;;;;;;;7.81;100.00;98237.13;6304983;22;20030;-50
2021/12/09 07:45:49;;;;;;;0.95;0.80;;;;;;;7.85;100.00;98245.19;6305604;22;20022;-50
2021/12/09 07:48:52;;;;;;;0.95;0.95;;;;;;;7.81;100.00;98239.13;6305079;22;20157;-50
2021/12/09 07:51:55;;;;;;;1.00;0.52;;;;;;;7.74;100.00;98239.59;6304963;22;20050;-50
2021/12/09 07:54:58;;;;;;;0.88;0.88;;;;;;;7.78;100.00;98245.66;6305658;22;20042;-51
2021/12/09 07:58:00;;;;;;;0.20;0.20;;;;;;;7.39;100.00;98254.47;6305767;22;20077;-50
2021/12/09 08:01:04;;;;;;;3.42;0.50;;;;;;;7.51;100.00;98247.75;6305604;22;20030;-50
2021/12/09 08:04:07;;;;;;;3.22;0.40;;;;;;;7.52;100.00;98246.50;6305641;22;20053;-51
2021/12/09 08:07:10;;;;;;;3.30;0.77;;;;;;;7.46;100.00;98248.50;6305581;22;20444;-51
2021/12/09 08:10:15;;;;;;;0.75;0.57;;;;;;;7.39;100.00;98254.47;6305820;22;20457;-51
2021/12/09 08:13:18;;;;;;;1.10;0.35;;;;;;;7.44;100.00;98245.47;6305717;22;20049;-50
2021/12/09 08:16:23;;;;;;;1.27;0.90;;;;;;;7.38;100.00;98252.22;6305625;22;20084;-50
2021/12/09 08:19:26;;;;;;;2.38;0.55;;;;;;;7.30;100.00;98257.44;6304858;22;20026;-50
2021/12/09 08:22:28;;;;;;;4.15;0.75;;;;;;;7.24;100.00;98259.41;6305039;22;20343;-51
2021/12/09 08:25:32;;;;;;;5.43;0.77;;;;;;;7.26;100.00;98270.75;6305133;22;20022;-50
2021/12/09 08:28:35;;;;;;;9.88;1.02;;;;;;;7.32;100.00;98260.47;6305143;22;20088;-51
2021/12/09 08:31:38;;;;;;;1.75;0.85;;;;;;;7.35;100.00;98259.50;6305441;22;20451;-51
2021/12/09 08:34:41;;;;;;;1.30;0.52;;;;;;;7.39;100.00;98264.78;6304864;22;20509;-51
2021/12/09 08:37:45;;;;;;;7.68;1.15;;;;;;;7.45;100.00;98265.63;6304703;22;20505;-50
2021/12/09 08:40:48;;;;;;;0.50;0.30;;;;;;;7.44;100.00;98253.78;6304640;22;20470;-50
2021/12/09 08:43:50;;;;;;;2.47;1.02;;;;;;;7.55;100.00;98256.63;6306838;22;20524;-51
2021/12/09 08:46:53;;;;;;;0.85;0.55;;;;;;;7.61;100.00;98251.88;6307126;22;20050;-50
2021/12/09 08:49:56;;;;;;;0.40;0.40;;;;;;;7.60;100.00;98247.56;6307371;22;20068;-51
2021/12/09 08:53:03;;;;;;;0.55;0.55;;;;;;;7.72;100.00;98247.63;6307500;22;20068;-51
2021/12/09 08:56:05;;;;;;;0.45;0.25;;;;;;;7.73;100.00;98244.38;6307731;22;20023;-51
2021/12/09 08:59:08;;;;;;;1.00;1.00;;;;;;;7.81;100.00;98241.91;6307249;22;20106;-51
2021/12/09 09:02:14;;;;;;;0.10;0.10;;;;;;;7.92;100.00;98239.19;6307390;22;20046;-51
2021/12/09 09:05:17;;;;;;;0.82;0.60;;;;;;;8.02;100.00;98237.72;6307191;22;20153;-51
2021/12/09 09:08:20;;;;;;;0.63;0.35;;;;;;;8.08;100.00;98228.16;6307748;22;20071;-50
2021/12/09 09:11:24;;;;;;;2.95;0.93;;;;;;;8.05;100.00;98233.97;6307182;22;20053;-50
2021/12/09 09:14:27;;;;;;;0.93;0.28;;;;;;;8.08;100.00;98230.16;6306975;22;20023;-50
2021/12/09 09:17:31;;;;;;;0.40;0.40;;;;;;;8.11;100.00;98229.19;6305944;22;20336;-51
2021/12/09 09:20:39;;;;;;;0.47;0.47;;;;;;;8.07;100.00;98223.88;6306563;22;20068;-50
2021/12/09 09:23:42;;;;;;;0.10;0.10;;;;;;;7.99;100.00;98233.19;6305438;22;20022;-51
2021/12/09 09:26:45;;;;;;;11.65;0.50;;;;;;;7.85;100.00;98225.78;6305979;22;20030;-50
2021/12/09 09:29:48;;;;;;;0.10;0.10;;;;;;;7.81;100.00;98222.50;6305820;22;20076;-50
2021/12/09 09:32:51;;;;;;;0.22;0.22;;;;;;;7.75;100.00;98228.03;6306163;22;20045;-50
2021/12/09 09:35:54;;;;;;;0.40;0.40;;;;;;;7.67;100.00;98229.00;6305365;22;20463;-50
2021/12/09 09:39:16;;;;;;;3.90;0.30;;;;;;;7.56;100.00;98216.56;6307373;22;20141;-51
2021/12/09 09:42:55;;;;;;;0.32;0.30;;;;;;;7.49;100.00;98233.66;6306974;22;20026;-50
2021/12/09 09:45:57;;;;;;;1.13;0.47;;;;;;;7.42;100.00;98250.75;6306830;22;20068;-50
2021/12/09 09:49:01;;;;;;;0.40;0.40;;;;;;;7.38;100.00;98263.28;6306951;22;20026;-50
2021/12/09 09:52:05;;;;;;;10.25;1.52;;;;;;;7.33;100.00;98250.16;6307138;22;20094;-50
2021/12/09 09:55:10;;;;;;;0.10;0.10;;;;;;;7.37;100.00;98251.44;6306771;22;20022;-50
2021/12/09 09:58:15;;;;;;;0.10;0.10;;;;;;;7.46;100.00;98254.03;6306910;22;20026;-50
2021/12/09 10:01:20;;;;;;;0.10;0.10;;;;;;;7.39;100.00;98237.88;6306853;22;20030;-50
2021/12/09 10:04:44;;;;;;;7.70;0.90;;;;;;;7.38;100.00;98236.38;6306625;22;20045;-51
2021/12/09 10:07:47;;;;;;;0.30;0.30;;;;;;;7.44;100.00;98261.31;6306138;22;20025;-50
2021/12/09 10:10:50;;;;;;;7.78;0.68;;;;;;;7.48;100.00;98257.06;6306537;22;20025;-50
2021/12/09 10:14:08;;;;;;;0.25;0.25;;;;;;;7.43;100.00;98255.00;6306295;22;20088;-50
2021/12/09 10:17:14;;;;;;;0.38;0.38;;;;;;;7.31;100.00;98256.19;6307045;22;20141;-50
2021/12/09 10:20:17;;;;;;;0.10;0.10;;;;;;;7.25;100.00;98272.00;6306475;22;20026;-50
2021/12/09 10:23:31;;;;;;;0.77;0.75;;;;;;;7.30;100.00;98279.59;6306698;22;20371;-50
2021/12/09 10:26:37;;;;;;;0.10;0.10;;;;;;;7.49;100.00;98269.66;6306723;22;20097;-50
2021/12/09 10:29:44;;;;;;;0.38;0.30;;;;;;;7.62;100.00;98264.44;6306371;22;20432;-50
2021/12/09 10:32:49;;;;;;;7.13;0.40;;;;;;;7.69;100.00;98273.56;6306309;22;20022;-50
2021/12/09 10:35:52;;;;;;;0.68;0.40;;;;;;;7.78;100.00;98268.59;6306243;22;20022;-50
2021/12/09 10:39:32;;;;;;;2.15;1.05;;;;;;;7.89;100.00;98262.34;6306217;22;20513;-50
2021/12/09 10:42:47;;;;;;;0.32;0.30;;;;;;;7.99;100.00;98269.94;6305322;22;20034;-50
2021/12/09 10:45:50;;;;;;;4.60;0.60;;;;;;;8.09;100.00;98273.28;6306181;22;20516;-50
2021/12/09 10:49:12;;;;;;;0.13;0.10;;;;;;;8.14;100.00;98273.28;6306410;22;20026;-50
2021/12/09 10:52:22;;;;;;;2.15;0.85;;;;;;;8.22;100.00;98256.97;6306500;22;20072;-51
2021/12/09 10:55:34;;;;;;;0.20;0.20;;;;;;;8.18;100.00;98240.56;6306567;22;20093;-51
2021/12/09 10:58:45;;;;;;;0.65;0.65;;;;;;;8.19;100.00;98241.31;6305811;22;20104;-51
2021/12/09 11:02:05;;;;;;;1.98;0.55;;;;;;;8.22;100.00;98243.09;6305917;22;20029;-51
2021/12/09 11:05:09;;;;;;;13.93;0.85;;;;;;;8.22;100.00;98243.84;6305694;22;20073;-50
2021/12/09 11:08:16;;;;;;;9.75;0.52;;;;;;;8.30;100.00;98230.28;6306001;22;20092;-51
2021/12/09 11:11:31;;;;;;;0.17;0.17;;;;;;;8.35;100.00;98216.44;6306477;22;20470;-51
2021/12/09 11:14:55;;;;;;;0.20;0.20;;;;;;;8.38;100.00;98203.59;6287464;22;20064;-51
2021/12/09 11:18:07;;;;;;;1.15;0.43;;;;;;;8.45;100.00;98219.75;6306460;22;20079;-51
2021/12/09 11:21:17;;;;;;;1.75;1.40;;;;;;;8.54;100.00;98229.84;6306166;22;20030;-51
2021/12/09 11:24:20;;;;;;;10.77;3.13;;;;;;;8.55;100.00;98223.81;6306144;22;20096;-51
2021/12/09 11:27:26;;;;;;;17.30;4.07;;;;;;;8.56;100.00;98233.63;6306249;22;20378;-51
2021/12/09 11:30:32;;;;;;;6.65;1.48;;;;;;;8.59;100.00;98218.00;6306109;22;20026;-50
2021/12/09 11:33:40;;;;;;;0.80;0.45;;;;;;;8.58;100.00;98208.91;6305428;22;20021;-50
2021/12/09 11:36:56;;;;;;;4.88;1.55;;;;;;;8.50;100.00;98199.59;6306002;22;20029;-50
2021/12/09 11:40:00;;;;;;;4.05;2.05;;;;;;;8.36;100.00;98195.00;6305532;22;20520;-51
2021/12/09 11:43:04;;;;;;;2.50;1.35;;;;;;;8.30;100.00;98202.56;6305971;22;20022;-51
2021/12/09 11:46:08;;;;;;;1.33;0.63;;;;;;;8.24;100.00;98198.97;6306048;22;20077;-50
2021/12/09 11:49:11;;;;;;;9.95;1.27;;;;;;;8.14;100.00;98194.94;6304938;22;20026;-50
2021/12/09 11:52:15;;;;;;;1.08;0.43;;;;;;;8.07;100.00;98189.84;6286461;22;20026;-50
2021/12/09 11:55:23;;;;;;;3.45;0.50;;;;;;;8.10;100.00;98200.69;6306298;22;20025;-50
2021/12/09 11:58:33;;;;;;;1.35;0.50;;;;;;;8.10;100.00;98199.97;6305414;22;20080;-50
2021/12/09 12:12:28;;;;;;;1.05;0.45;;;;;;;8.10;100.00;98195.16;6305534;22;20029;-50
2021/12/09 12:33:07;;;;;;;0.10;0.10;;;;;;;8.22;100.00;98184.88;6305226;22;20534;-50
2021/12/09 12:36:02;;;;;;;0.25;0.22;;;;;;;8.26;100.00;98186.16;6303902;22;20068;-49
2021/12/09 12:39:18;;;;;;;0.10;0.10;;;;;;;8.29;100.00;98182.38;6303937;22;20065;-50
2021/12/09 12:42:41;;;;;;;1.20;0.52;;;;;;;8.34;100.00;98165.00;6303196;22;20121;-49
2021/12/09 12:49:08;;;;;;;5.38;1.80;;;;;;;8.40;100.00;98142.84;6304353;22;20026;-51
2021/12/09 12:52:21;;;;;;;14.80;1.58;;;;;;;8.46;100.00;98142.84;6304965;22;20030;-51
2021/12/09 12:55:26;;;;;;;3.58;1.00;;;;;;;8.45;100.00;98136.53;6305883;22;20327;-50
2021/12/09 12:58:30;;;;;;;0.20;0.20;;;;;;;8.46;100.00;98126.94;6305423;22;20022;-50
2021/12/09 13:01:59;;;;;;;7.53;1.55;;;;;;;8.39;100.00;98127.44;6304905;22;20077;-50
2021/12/09 13:05:30;;;;;;;0.20;0.20;;;;;;;8.28;100.00;98121.88;6304786;22;20524;-50
2021/12/09 13:08:53;;;;;;;0.22;0.20;;;;;;;8.22;100.00;98112.75;6304288;22;20513;-51
2021/12/09 13:12:04;;;;;;;4.57;0.40;;;;;;;8.20;100.00;98115.28;6304930;22;20021;-50
2021/12/09 13:15:31;;;;;;;0.30;0.30;;;;;;;8.13;100.00;98105.44;6286249;22;20478;-50
2021/12/09 13:22:09;;;;;;;0.47;0.43;;;;;;;8.17;100.00;98088.56;6305470;22;20513;-50
2021/12/09 13:25:24;;;;;;;2.28;0.85;;;;;;;8.06;100.00;98066.34;6305587;22;20022;-50
2021/12/09 13:28:52;;;;;;;0.32;0.32;;;;;;;8.02;100.00;98066.63;6305464;22;20023;-50
2021/12/09 13:32:18;;;;;;;0.10;0.10;;;;;;;7.98;100.00;98054.25;6307198;22;20103;-50
2021/12/09 13:35:47;;;;;;;1.38;0.55;;;;;;;8.01;100.00;98053.25;6306897;22;20022;-50
2021/12/09 13:49:17;;;;;;;3.20;0.73;;;;;;;8.18;100.00;98029.84;6306045;22;20022;-50
2021/12/09 13:55:42;;;;;;;0.73;0.73;;;;;;;8.55;100.00;98007.41;6306449;22;20081;-50
2021/12/09 13:58:48;;;;;;;11.02;1.40;;;;;;;8.66;100.00;98001.09;6306153;22;20483;-50
2021/12/09 14:01:54;;;;;;;3.95;0.73;;;;;;;8.76;100.00;98005.09;6306264;22;20030;-48
2021/12/09 14:04:58;;;;;;;0.93;0.45;;;;;;;8.87;100.00;97994.72;6306226;22;20355;-49
2021/12/09 14:08:06;;;;;;;0.30;0.30;;;;;;;8.90;100.00;97985.38;6306800;22;20099;-48
2021/12/09 14:11:15;;;;;;;0.70;0.30;;;;;;;8.88;100.00;97974.03;6287636;22;20021;-48
2021/12/09 14:14:24;;;;;;;0.65;0.30;;;;;;;8.78;100.00;97953.38;6306986;22;20025;-48
2021/12/09 14:17:28;;;;;;;0.68;0.45;;;;;;;8.63;100.00;97961.22;6306691;22;20045;-48
2021/12/09 14:20:31;;;;;;;3.85;0.47;;;;;;;8.39;100.00;97964.56;6306116;22;20072;-49
2021/12/09 14:23:34;;;;;;;3.80;0.75;;;;;;;8.24;100.00;97960.50;6305835;22;20095;-49
2021/12/09 14:26:37;;;;;;;11.65;2.13;;;;;;;8.15;100.00;97949.69;6306407;22;20070;-49
2021/12/09 14:29:45;;;;;;;0.60;0.50;;;;;;;8.11;100.00;97946.41;6306263;22;20017;-49
2021/12/09 14:32:52;;;;;;;5.57;0.82;;;;;;;8.06;100.00;97939.59;6305676;22;20363;-49
2021/12/09 14:36:06;;;;;;;2.60;0.70;;;;;;;8.09;100.00;97938.59;6306309;22;20050;-49
2021/12/09 14:39:12;;;;;;;3.85;1.30;;;;;;;8.10;100.00;97933.81;6306886;22;20324;-50
2021/12/09 14:42:19;;;;;;;2.83;0.77;;;;;;;8.12;100.00;97932.03;6305867;22;20049;-50
2021/12/09 14:45:28;;;;;;;1.55;1.45;;;;;;;8.20;100.00;97921.19;6306279;22;20347;-50
2021/12/09 14:48:38;;;;;;;0.73;0.30;;;;;;;8.24;100.00;97916.91;6305656;22;20049;-50
2021/12/09 14:51:42;;;;;;;1.40;1.25;;;;;;;8.30;100.00;97903.81;6306005;22;20021;-51
2021/12/09 14:54:46;;;;;;;7.53;1.15;;;;;;;8.25;100.00;97901.03;6305580;22;20030;-51
2021/12/09 14:57:51;;;;;;;3.42;0.80;;;;;;;8.25;100.00;97901.03;6306022;22;20030;-49
2021/12/09 15:01:01;;;;;;;1.38;0.80;;;;;;;8.37;100.00;97886.66;6306277;22;20094;-50
2021/12/09 15:04:12;;;;;;;3.95;1.42;;;;;;;8.42;100.00;97887.91;6306553;22;20026;-49
2021/12/09 15:07:28;;;;;;;0.10;0.10;;;;;;;8.41;100.00;97891.94;6306267;22;20088;-50
2021/12/09 15:10:34;;;;;;;1.15;0.50;;;;;;;8.48;100.00;97885.88;6305278;22;20041;-50
2021/12/09 15:13:43;;;;;;;1.05;0.10;;;;;;;8.47;100.00;97884.34;6305746;22;20091;-50
2021/12/09 15:17:09;;;;;;;0.30;0.30;;;;;;;8.45;100.00;97873.00;6305167;22;20034;-50
2021/12/09 15:20:13;;;;;;;2.20;0.40;;;;;;;8.52;100.00;97863.41;6285784;22;20022;-50
2021/12/09 15:23:45;;;;;;;6.57;1.33;;;;;;;8.49;100.00;97854.06;6304965;22;20406;-49
2021/12/09 15:26:52;;;;;;;0.73;0.60;;;;;;;8.41;100.00;97853.09;6288860;22;20111;-51
2021/12/09 15:29:55;;;;;;;13.98;1.00;;;;;;;8.29;100.00;97848.88;6305499;22;20027;-50
2021/12/09 15:33:00;;;;;;;0.47;0.32;;;;;;;8.25;100.00;97851.13;6286162;22;20026;-50
2021/12/09 15:36:13;;;;;;;0.63;0.63;;;;;;;8.29;100.00;97848.88;6305395;22;20022;-51
2021/12/09 15:39:23;;;;;;;7.93;0.47;;;;;;;8.37;100.00;97842.28;6305963;22;20108;-50